sensor_id;sensor_type;location;lat;lon;timestamp;P1;durP1;ratioP1;P2;durP2;ratioP2
5297;SDS011;14738;42.668;23.250;2023-04-08T00:02:08;25.83;;;21.13;;
5297;SDS011;14738;42.668;23.250;2023-04-08T00:04:33;27.47;;;20.80;;
5297;SDS011;14738;42.668;23.250;2023-04-08T00:06:58;26.53;;;20.87;;
5297;SDS011;14738;42.668;23.250;2023-04-08T00:09:24;28.00;;;21.80;;
5297;SDS011;14738;42.668;23.250;2023-04-08T00:11:49;28.83;;;21.33;;
5297;SDS011;14738;42.668;23.250;2023-04-08T00:14:15;26.23;;;22.47;;
5297;SDS011;14738;42.668;23.250;2023-04-08T00:16:40;28.07;;;21.87;;
5297;SDS011;14738;42.668;23.250;2023-04-08T00:19:05;28.37;;;22.93;;
5297;SDS011;14738;42.668;23.250;2023-04-08T00:21:31;29.07;;;23.60;;
5297;SDS011;14738;42.668;23.250;2023-04-08T00:23:56;27.97;;;23.47;;
5297;SDS011;14738;42.668;23.250;2023-04-08T00:26:22;29.87;;;22.67;;
5297;SDS011;14738;42.668;23.250;2023-04-08T00:28:47;30.73;;;23.00;;
5297;SDS011;14738;42.668;23.250;2023-04-08T00:31:13;26.00;;;22.43;;
5297;SDS011;14738;42.668;23.250;2023-04-08T00:33:38;32.23;;;22.23;;
5297;SDS011;14738;42.668;23.250;2023-04-08T00:36:03;29.67;;;23.73;;
5297;SDS011;14738;42.668;23.250;2023-04-08T00:38:29;27.60;;;22.90;;
5297;SDS011;14738;42.668;23.250;2023-04-08T00:40:55;31.47;;;23.83;;
5297;SDS011;14738;42.668;23.250;2023-04-08T00:43:20;32.53;;;23.63;;
5297;SDS011;14738;42.668;23.250;2023-04-08T00:45:48;30.77;;;24.80;;
5297;SDS011;14738;42.668;23.250;2023-04-08T00:48:14;28.23;;;22.80;;
5297;SDS011;14738;42.668;23.250;2023-04-08T00:50:39;30.77;;;22.33;;
5297;SDS011;14738;42.668;23.250;2023-04-08T00:53:07;28.13;;;22.90;;
5297;SDS011;14738;42.668;23.250;2023-04-08T00:55:33;28.63;;;23.40;;
5297;SDS011;14738;42.668;23.250;2023-04-08T00:57:58;23.80;;;20.40;;
5297;SDS011;14738;42.668;23.250;2023-04-08T01:00:24;27.43;;;21.17;;
5297;SDS011;14738;42.668;23.250;2023-04-08T01:08:11;25.33;;;21.77;;
5297;SDS011;14738;42.668;23.250;2023-04-08T01:10:39;29.53;;;22.07;;
5297;SDS011;14738;42.668;23.250;2023-04-08T01:13:08;28.23;;;23.83;;
5297;SDS011;14738;42.668;23.250;2023-04-08T01:15:36;29.10;;;22.70;;
5297;SDS011;14738;42.668;23.250;2023-04-08T01:18:05;30.10;;;23.33;;
5297;SDS011;14738;42.668;23.250;2023-04-08T01:20:32;26.63;;;22.60;;
5297;SDS011;14738;42.668;23.250;2023-04-08T01:25:55;29.43;;;22.40;;
5297;SDS011;14738;42.668;23.250;2023-04-08T01:28:22;28.03;;;21.80;;
5297;SDS011;14738;42.668;23.250;2023-04-08T01:30:51;31.53;;;23.10;;
5297;SDS011;14738;42.668;23.250;2023-04-08T01:33:20;27.77;;;23.87;;
5297;SDS011;14738;42.668;23.250;2023-04-08T01:35:47;29.20;;;23.50;;
5297;SDS011;14738;42.668;23.250;2023-04-08T01:38:14;33.90;;;22.20;;
5297;SDS011;14738;42.668;23.250;2023-04-08T01:40:42;28.80;;;23.20;;
5297;SDS011;14738;42.668;23.250;2023-04-08T01:43:09;30.57;;;21.47;;
5297;SDS011;14738;42.668;23.250;2023-04-08T01:45:35;29.47;;;21.73;;
5297;SDS011;14738;42.668;23.250;2023-04-08T01:48:00;28.67;;;21.20;;
5297;SDS011;14738;42.668;23.250;2023-04-08T01:50:27;29.50;;;21.80;;
5297;SDS011;14738;42.668;23.250;2023-04-08T01:52:55;32.43;;;24.37;;
5297;SDS011;14738;42.668;23.250;2023-04-08T01:55:23;28.87;;;23.00;;
5297;SDS011;14738;42.668;23.250;2023-04-08T01:57:49;25.40;;;21.80;;
5297;SDS011;14738;42.668;23.250;2023-04-08T02:00:21;29.67;;;23.70;;
5297;SDS011;14738;42.668;23.250;2023-04-08T02:02:50;28.83;;;24.50;;
5297;SDS011;14738;42.668;23.250;2023-04-08T02:05:16;38.50;;;24.30;;
5297;SDS011;14738;42.668;23.250;2023-04-08T02:07:42;31.20;;;23.97;;
5297;SDS011;14738;42.668;23.250;2023-04-08T02:10:08;32.80;;;26.20;;
5297;SDS011;14738;42.668;23.250;2023-04-08T02:12:34;32.13;;;26.00;;
5297;SDS011;14738;42.668;23.250;2023-04-08T02:15:00;35.37;;;26.03;;
5297;SDS011;14738;42.668;23.250;2023-04-08T02:22:47;32.73;;;26.53;;
5297;SDS011;14738;42.668;23.250;2023-04-08T02:25:14;31.37;;;26.27;;
5297;SDS011;14738;42.668;23.250;2023-04-08T02:27:42;35.73;;;28.70;;
5297;SDS011;14738;42.668;23.250;2023-04-08T02:30:10;33.93;;;26.20;;
5297;SDS011;14738;42.668;23.250;2023-04-08T02:32:37;33.30;;;26.57;;
5297;SDS011;14738;42.668;23.250;2023-04-08T02:35:03;31.37;;;25.90;;
5297;SDS011;14738;42.668;23.250;2023-04-08T02:37:30;34.37;;;27.47;;
5297;SDS011;14738;42.668;23.250;2023-04-08T02:39:56;33.83;;;26.47;;
5297;SDS011;14738;42.668;23.250;2023-04-08T02:42:22;30.70;;;26.00;;
5297;SDS011;14738;42.668;23.250;2023-04-08T02:44:48;34.03;;;26.40;;
5297;SDS011;14738;42.668;23.250;2023-04-08T02:47:13;31.50;;;26.10;;
5297;SDS011;14738;42.668;23.250;2023-04-08T02:49:39;33.10;;;25.57;;
5297;SDS011;14738;42.668;23.250;2023-04-08T02:52:04;35.17;;;26.93;;
5297;SDS011;14738;42.668;23.250;2023-04-08T02:54:30;34.53;;;26.70;;
5297;SDS011;14738;42.668;23.250;2023-04-08T02:56:55;33.50;;;26.83;;
5297;SDS011;14738;42.668;23.250;2023-04-08T02:59:21;42.93;;;30.33;;
5297;SDS011;14738;42.668;23.250;2023-04-08T03:01:46;49.57;;;33.80;;
5297;SDS011;14738;42.668;23.250;2023-04-08T03:04:11;50.23;;;33.73;;
5297;SDS011;14738;42.668;23.250;2023-04-08T03:06:37;41.07;;;29.50;;
5297;SDS011;14738;42.668;23.250;2023-04-08T03:09:02;48.03;;;29.13;;
5297;SDS011;14738;42.668;23.250;2023-04-08T03:11:29;38.10;;;28.67;;
5297;SDS011;14738;42.668;23.250;2023-04-08T03:13:55;49.97;;;29.50;;
5297;SDS011;14738;42.668;23.250;2023-04-08T03:16:20;31.77;;;26.20;;
5297;SDS011;14738;42.668;23.250;2023-04-08T03:18:46;28.93;;;25.40;;
5297;SDS011;14738;42.668;23.250;2023-04-08T03:21:11;27.67;;;24.10;;
5297;SDS011;14738;42.668;23.250;2023-04-08T03:23:36;32.83;;;23.90;;
5297;SDS011;14738;42.668;23.250;2023-04-08T03:26:02;28.77;;;23.70;;
5297;SDS011;14738;42.668;23.250;2023-04-08T03:28:27;31.30;;;23.87;;
5297;SDS011;14738;42.668;23.250;2023-04-08T03:30:52;30.60;;;24.47;;
5297;SDS011;14738;42.668;23.250;2023-04-08T03:33:18;30.03;;;23.17;;
5297;SDS011;14738;42.668;23.250;2023-04-08T03:35:43;31.67;;;23.73;;
5297;SDS011;14738;42.668;23.250;2023-04-08T03:38:08;34.43;;;25.00;;
5297;SDS011;14738;42.668;23.250;2023-04-08T03:40:34;27.70;;;23.90;;
5297;SDS011;14738;42.668;23.250;2023-04-08T03:42:59;34.70;;;25.17;;
5297;SDS011;14738;42.668;23.250;2023-04-08T03:45:25;26.23;;;22.10;;
5297;SDS011;14738;42.668;23.250;2023-04-08T03:47:50;30.80;;;24.97;;
5297;SDS011;14738;42.668;23.250;2023-04-08T03:50:16;31.73;;;23.53;;
5297;SDS011;14738;42.668;23.250;2023-04-08T03:52:41;29.50;;;24.73;;
5297;SDS011;14738;42.668;23.250;2023-04-08T03:55:07;32.93;;;24.57;;
5297;SDS011;14738;42.668;23.250;2023-04-08T03:57:32;32.87;;;25.80;;
5297;SDS011;14738;42.668;23.250;2023-04-08T03:59:58;32.80;;;24.53;;
5297;SDS011;14738;42.668;23.250;2023-04-08T04:02:23;29.67;;;25.43;;
5297;SDS011;14738;42.668;23.250;2023-04-08T04:04:49;31.27;;;24.67;;
5297;SDS011;14738;42.668;23.250;2023-04-08T04:07:14;33.70;;;26.13;;
5297;SDS011;14738;42.668;23.250;2023-04-08T04:09:40;33.17;;;26.40;;
5297;SDS011;14738;42.668;23.250;2023-04-08T04:12:05;34.23;;;25.40;;
5297;SDS011;14738;42.668;23.250;2023-04-08T04:14:31;33.00;;;24.90;;
5297;SDS011;14738;42.668;23.250;2023-04-08T04:16:56;32.43;;;25.20;;
5297;SDS011;14738;42.668;23.250;2023-04-08T04:19:21;32.77;;;25.83;;
5297;SDS011;14738;42.668;23.250;2023-04-08T04:21:47;31.83;;;25.03;;
5297;SDS011;14738;42.668;23.250;2023-04-08T04:24:12;35.30;;;25.83;;
5297;SDS011;14738;42.668;23.250;2023-04-08T04:26:39;34.80;;;25.27;;
5297;SDS011;14738;42.668;23.250;2023-04-08T04:29:05;30.97;;;25.33;;
5297;SDS011;14738;42.668;23.250;2023-04-08T04:31:31;28.80;;;25.33;;
5297;SDS011;14738;42.668;23.250;2023-04-08T04:33:56;32.17;;;24.87;;
5297;SDS011;14738;42.668;23.250;2023-04-08T04:36:22;30.50;;;24.13;;
5297;SDS011;14738;42.668;23.250;2023-04-08T04:38:48;30.40;;;25.23;;
5297;SDS011;14738;42.668;23.250;2023-04-08T04:41:14;31.80;;;25.33;;
5297;SDS011;14738;42.668;23.250;2023-04-08T04:43:40;33.80;;;26.60;;
5297;SDS011;14738;42.668;23.250;2023-04-08T04:46:05;31.20;;;25.50;;
5297;SDS011;14738;42.668;23.250;2023-04-08T04:48:31;42.00;;;31.03;;
5297;SDS011;14738;42.668;23.250;2023-04-08T04:50:57;41.20;;;30.00;;
5297;SDS011;14738;42.668;23.250;2023-04-08T04:53:24;40.17;;;29.03;;
5297;SDS011;14738;42.668;23.250;2023-04-08T04:55:49;38.90;;;30.87;;
5297;SDS011;14738;42.668;23.250;2023-04-08T04:58:15;41.03;;;31.50;;
5297;SDS011;14738;42.668;23.250;2023-04-08T05:00:41;39.90;;;31.30;;
5297;SDS011;14738;42.668;23.250;2023-04-08T05:03:06;36.73;;;29.50;;
5297;SDS011;14738;42.668;23.250;2023-04-08T05:05:32;41.60;;;29.50;;
5297;SDS011;14738;42.668;23.250;2023-04-08T05:07:57;35.10;;;28.27;;
5297;SDS011;14738;42.668;23.250;2023-04-08T05:10:23;35.00;;;27.57;;
5297;SDS011;14738;42.668;23.250;2023-04-08T05:12:48;32.73;;;25.67;;
5297;SDS011;14738;42.668;23.250;2023-04-08T05:15:13;35.00;;;28.03;;
5297;SDS011;14738;42.668;23.250;2023-04-08T05:17:39;29.30;;;25.00;;
5297;SDS011;14738;42.668;23.250;2023-04-08T05:20:05;40.77;;;26.97;;
5297;SDS011;14738;42.668;23.250;2023-04-08T05:22:31;36.10;;;28.67;;
5297;SDS011;14738;42.668;23.250;2023-04-08T05:24:56;44.93;;;34.87;;
5297;SDS011;14738;42.668;23.250;2023-04-08T05:27:22;43.53;;;31.60;;
5297;SDS011;14738;42.668;23.250;2023-04-08T05:29:47;44.53;;;34.57;;
5297;SDS011;14738;42.668;23.250;2023-04-08T05:32:12;33.10;;;27.17;;
5297;SDS011;14738;42.668;23.250;2023-04-08T05:34:38;35.97;;;27.83;;
5297;SDS011;14738;42.668;23.250;2023-04-08T05:37:03;31.67;;;27.57;;
5297;SDS011;14738;42.668;23.250;2023-04-08T05:39:29;33.57;;;27.73;;
5297;SDS011;14738;42.668;23.250;2023-04-08T05:41:54;34.00;;;27.97;;
5297;SDS011;14738;42.668;23.250;2023-04-08T05:44:20;38.33;;;29.60;;
5297;SDS011;14738;42.668;23.250;2023-04-08T05:46:45;37.13;;;28.23;;
5297;SDS011;14738;42.668;23.250;2023-04-08T05:49:11;36.13;;;28.40;;
5297;SDS011;14738;42.668;23.250;2023-04-08T05:51:37;37.77;;;28.47;;
5297;SDS011;14738;42.668;23.250;2023-04-08T05:54:03;42.97;;;29.43;;
5297;SDS011;14738;42.668;23.250;2023-04-08T05:56:28;39.77;;;29.17;;
5297;SDS011;14738;42.668;23.250;2023-04-08T05:58:56;33.87;;;28.20;;
5297;SDS011;14738;42.668;23.250;2023-04-08T06:01:21;36.97;;;29.07;;
5297;SDS011;14738;42.668;23.250;2023-04-08T06:03:47;32.13;;;27.27;;
5297;SDS011;14738;42.668;23.250;2023-04-08T06:06:12;29.90;;;25.87;;
5297;SDS011;14738;42.668;23.250;2023-04-08T06:08:38;31.43;;;26.47;;
5297;SDS011;14738;42.668;23.250;2023-04-08T06:11:03;34.23;;;27.17;;
5297;SDS011;14738;42.668;23.250;2023-04-08T06:13:29;32.30;;;26.30;;
5297;SDS011;14738;42.668;23.250;2023-04-08T06:15:55;34.33;;;26.90;;
5297;SDS011;14738;42.668;23.250;2023-04-08T06:18:20;32.90;;;25.80;;
5297;SDS011;14738;42.668;23.250;2023-04-08T06:20:45;30.23;;;26.43;;
5297;SDS011;14738;42.668;23.250;2023-04-08T06:23:11;33.30;;;27.63;;
5297;SDS011;14738;42.668;23.250;2023-04-08T06:25:37;29.27;;;24.80;;
5297;SDS011;14738;42.668;23.250;2023-04-08T06:28:02;30.50;;;25.10;;
5297;SDS011;14738;42.668;23.250;2023-04-08T06:30:27;31.70;;;24.83;;
5297;SDS011;14738;42.668;23.250;2023-04-08T06:32:53;32.63;;;26.87;;
5297;SDS011;14738;42.668;23.250;2023-04-08T06:35:18;35.77;;;25.37;;
5297;SDS011;14738;42.668;23.250;2023-04-08T06:37:44;43.90;;;25.90;;
5297;SDS011;14738;42.668;23.250;2023-04-08T06:40:09;36.30;;;26.23;;
5297;SDS011;14738;42.668;23.250;2023-04-08T06:42:35;34.73;;;26.53;;
5297;SDS011;14738;42.668;23.250;2023-04-08T06:45:02;32.80;;;26.77;;
5297;SDS011;14738;42.668;23.250;2023-04-08T06:47:28;38.07;;;28.50;;
5297;SDS011;14738;42.668;23.250;2023-04-08T06:49:54;34.30;;;28.20;;
5297;SDS011;14738;42.668;23.250;2023-04-08T06:52:19;35.90;;;29.47;;
5297;SDS011;14738;42.668;23.250;2023-04-08T06:54:45;39.47;;;31.00;;
5297;SDS011;14738;42.668;23.250;2023-04-08T06:57:10;37.13;;;32.87;;
5297;SDS011;14738;42.668;23.250;2023-04-08T06:59:36;41.47;;;29.57;;
5297;SDS011;14738;42.668;23.250;2023-04-08T07:02:02;35.00;;;27.80;;
5297;SDS011;14738;42.668;23.250;2023-04-08T07:04:27;36.47;;;29.17;;
5297;SDS011;14738;42.668;23.250;2023-04-08T07:06:53;40.10;;;26.00;;
5297;SDS011;14738;42.668;23.250;2023-04-08T07:09:18;34.40;;;25.10;;
5297;SDS011;14738;42.668;23.250;2023-04-08T07:11:43;31.20;;;25.07;;
5297;SDS011;14738;42.668;23.250;2023-04-08T07:14:09;29.47;;;24.10;;
5297;SDS011;14738;42.668;23.250;2023-04-08T07:16:36;26.77;;;22.47;;
5297;SDS011;14738;42.668;23.250;2023-04-08T07:19:01;25.33;;;21.30;;
5297;SDS011;14738;42.668;23.250;2023-04-08T07:21:26;25.23;;;22.53;;
5297;SDS011;14738;42.668;23.250;2023-04-08T07:23:52;27.73;;;22.10;;
5297;SDS011;14738;42.668;23.250;2023-04-08T07:26:17;24.50;;;19.83;;
5297;SDS011;14738;42.668;23.250;2023-04-08T07:28:43;28.80;;;21.17;;
5297;SDS011;14738;42.668;23.250;2023-04-08T07:31:13;24.60;;;22.10;;
5297;SDS011;14738;42.668;23.250;2023-04-08T07:33:40;30.23;;;22.90;;
5297;SDS011;14738;42.668;23.250;2023-04-08T07:36:05;25.50;;;18.80;;
5297;SDS011;14738;42.668;23.250;2023-04-08T07:38:32;24.97;;;20.23;;
5297;SDS011;14738;42.668;23.250;2023-04-08T07:40:58;24.10;;;20.77;;
5297;SDS011;14738;42.668;23.250;2023-04-08T07:43:23;22.37;;;18.97;;
5297;SDS011;14738;42.668;23.250;2023-04-08T07:45:48;25.57;;;19.80;;
5297;SDS011;14738;42.668;23.250;2023-04-08T07:48:14;23.33;;;19.90;;
5297;SDS011;14738;42.668;23.250;2023-04-08T07:50:39;23.83;;;19.47;;
5297;SDS011;14738;42.668;23.250;2023-04-08T07:53:05;29.73;;;21.37;;
5297;SDS011;14738;42.668;23.250;2023-04-08T07:55:33;23.03;;;18.83;;
5297;SDS011;14738;42.668;23.250;2023-04-08T07:57:59;23.20;;;19.00;;
5297;SDS011;14738;42.668;23.250;2023-04-08T08:00:25;20.10;;;16.90;;
5297;SDS011;14738;42.668;23.250;2023-04-08T08:02:51;18.10;;;16.00;;
5297;SDS011;14738;42.668;23.250;2023-04-08T08:05:16;17.90;;;14.77;;
5297;SDS011;14738;42.668;23.250;2023-04-08T08:07:42;19.63;;;15.20;;
5297;SDS011;14738;42.668;23.250;2023-04-08T08:10:07;17.07;;;15.03;;
5297;SDS011;14738;42.668;23.250;2023-04-08T08:12:33;16.57;;;14.87;;
5297;SDS011;14738;42.668;23.250;2023-04-08T08:14:59;20.80;;;15.93;;
5297;SDS011;14738;42.668;23.250;2023-04-08T08:17:24;17.53;;;15.33;;
5297;SDS011;14738;42.668;23.250;2023-04-08T08:19:50;30.13;;;19.03;;
5297;SDS011;14738;42.668;23.250;2023-04-08T08:22:15;20.43;;;16.90;;
5297;SDS011;14738;42.668;23.250;2023-04-08T08:24:41;21.50;;;16.17;;
5297;SDS011;14738;42.668;23.250;2023-04-08T08:27:08;18.43;;;16.00;;
5297;SDS011;14738;42.668;23.250;2023-04-08T08:29:34;21.00;;;16.33;;
5297;SDS011;14738;42.668;23.250;2023-04-08T08:32:01;16.73;;;15.00;;
5297;SDS011;14738;42.668;23.250;2023-04-08T08:34:27;18.00;;;16.07;;
5297;SDS011;14738;42.668;23.250;2023-04-08T08:36:53;24.00;;;16.90;;
5297;SDS011;14738;42.668;23.250;2023-04-08T08:39:19;20.53;;;16.57;;
5297;SDS011;14738;42.668;23.250;2023-04-08T08:41:45;17.80;;;15.50;;
5297;SDS011;14738;42.668;23.250;2023-04-08T08:44:10;18.23;;;16.23;;
5297;SDS011;14738;42.668;23.250;2023-04-08T08:46:40;17.93;;;14.43;;
5297;SDS011;14738;42.668;23.250;2023-04-08T08:49:07;17.40;;;15.00;;
5297;SDS011;14738;42.668;23.250;2023-04-08T08:51:33;17.37;;;15.30;;
5297;SDS011;14738;42.668;23.250;2023-04-08T08:54:02;17.87;;;15.60;;
5297;SDS011;14738;42.668;23.250;2023-04-08T08:56:28;20.30;;;15.83;;
5297;SDS011;14738;42.668;23.250;2023-04-08T08:58:54;22.07;;;17.30;;
5297;SDS011;14738;42.668;23.250;2023-04-08T09:01:33;18.03;;;16.03;;
5297;SDS011;14738;42.668;23.250;2023-04-08T09:04:12;19.37;;;16.03;;
5297;SDS011;14738;42.668;23.250;2023-04-08T09:06:40;20.13;;;16.30;;
5297;SDS011;14738;42.668;23.250;2023-04-08T09:09:06;18.20;;;15.63;;
5297;SDS011;14738;42.668;23.250;2023-04-08T09:11:38;17.90;;;15.97;;
5297;SDS011;14738;42.668;23.250;2023-04-08T09:14:20;15.90;;;14.30;;
5297;SDS011;14738;42.668;23.250;2023-04-08T09:16:46;16.80;;;14.33;;
5297;SDS011;14738;42.668;23.250;2023-04-08T09:19:12;15.20;;;13.47;;
5297;SDS011;14738;42.668;23.250;2023-04-08T09:21:37;16.97;;;15.27;;
5297;SDS011;14738;42.668;23.250;2023-04-08T09:24:05;15.83;;;14.13;;
5297;SDS011;14738;42.668;23.250;2023-04-08T09:26:30;17.03;;;14.83;;
5297;SDS011;14738;42.668;23.250;2023-04-08T09:28:57;17.37;;;15.60;;
5297;SDS011;14738;42.668;23.250;2023-04-08T09:31:33;18.80;;;15.77;;
5297;SDS011;14738;42.668;23.250;2023-04-08T09:34:08;17.80;;;15.60;;
5297;SDS011;14738;42.668;23.250;2023-04-08T09:36:39;18.03;;;15.30;;
5297;SDS011;14738;42.668;23.250;2023-04-08T09:39:05;19.37;;;15.10;;
5297;SDS011;14738;42.668;23.250;2023-04-08T09:41:34;19.77;;;16.40;;
5297;SDS011;14738;42.668;23.250;2023-04-08T09:44:04;19.80;;;16.80;;
5297;SDS011;14738;42.668;23.250;2023-04-08T09:49:24;18.50;;;16.50;;
5297;SDS011;14738;42.668;23.250;2023-04-08T09:57:41;20.13;;;16.30;;
5297;SDS011;14738;42.668;23.250;2023-04-08T10:02:43;20.07;;;15.47;;
5297;SDS011;14738;42.668;23.250;2023-04-08T10:05:18;20.70;;;15.67;;
5297;SDS011;14738;42.668;23.250;2023-04-08T10:07:45;15.40;;;13.60;;
5297;SDS011;14738;42.668;23.250;2023-04-08T10:10:10;14.00;;;11.27;;
5297;SDS011;14738;42.668;23.250;2023-04-08T10:12:36;14.93;;;13.30;;
5297;SDS011;14738;42.668;23.250;2023-04-08T10:17:50;14.70;;;13.20;;
5297;SDS011;14738;42.668;23.250;2023-04-08T10:23:06;16.10;;;14.30;;
5297;SDS011;14738;42.668;23.250;2023-04-08T10:25:33;16.63;;;14.23;;
5297;SDS011;14738;42.668;23.250;2023-04-08T10:30:43;14.43;;;12.90;;
5297;SDS011;14738;42.668;23.250;2023-04-08T10:33:14;18.07;;;15.00;;
5297;SDS011;14738;42.668;23.250;2023-04-08T10:38:14;20.43;;;13.67;;
5297;SDS011;14738;42.668;23.250;2023-04-08T10:40:40;18.00;;;14.63;;
5297;SDS011;14738;42.668;23.250;2023-04-08T10:43:10;17.03;;;15.20;;
5297;SDS011;14738;42.668;23.250;2023-04-08T10:45:37;21.30;;;15.27;;
5297;SDS011;14738;42.668;23.250;2023-04-08T10:48:19;18.17;;;15.07;;
5297;SDS011;14738;42.668;23.250;2023-04-08T10:50:55;18.50;;;14.87;;
5297;SDS011;14738;42.668;23.250;2023-04-08T10:53:30;17.30;;;13.77;;
5297;SDS011;14738;42.668;23.250;2023-04-08T10:58:33;15.80;;;13.40;;
5297;SDS011;14738;42.668;23.250;2023-04-08T11:01:11;15.57;;;13.80;;
5297;SDS011;14738;42.668;23.250;2023-04-08T11:03:37;14.83;;;13.23;;
5297;SDS011;14738;42.668;23.250;2023-04-08T11:06:02;20.67;;;15.40;;
5297;SDS011;14738;42.668;23.250;2023-04-08T11:08:28;14.53;;;13.00;;
5297;SDS011;14738;42.668;23.250;2023-04-08T11:10:54;18.37;;;13.70;;
5297;SDS011;14738;42.668;23.250;2023-04-08T11:13:20;15.10;;;13.57;;
5297;SDS011;14738;42.668;23.250;2023-04-08T11:15:47;17.73;;;14.50;;
5297;SDS011;14738;42.668;23.250;2023-04-08T11:18:14;16.33;;;12.67;;
5297;SDS011;14738;42.668;23.250;2023-04-08T11:20:42;18.70;;;14.00;;
5297;SDS011;14738;42.668;23.250;2023-04-08T11:23:14;20.83;;;14.83;;
5297;SDS011;14738;42.668;23.250;2023-04-08T11:25:41;15.10;;;13.50;;
5297;SDS011;14738;42.668;23.250;2023-04-08T11:28:07;17.93;;;14.37;;
5297;SDS011;14738;42.668;23.250;2023-04-08T11:30:33;16.93;;;14.77;;
5297;SDS011;14738;42.668;23.250;2023-04-08T11:32:58;19.80;;;13.97;;
5297;SDS011;14738;42.668;23.250;2023-04-08T11:35:27;19.37;;;14.23;;
5297;SDS011;14738;42.668;23.250;2023-04-08T11:37:55;14.03;;;12.53;;
5297;SDS011;14738;42.668;23.250;2023-04-08T11:40:21;17.93;;;12.23;;
5297;SDS011;14738;42.668;23.250;2023-04-08T11:42:47;13.70;;;11.80;;
5297;SDS011;14738;42.668;23.250;2023-04-08T11:45:14;12.37;;;11.03;;
5297;SDS011;14738;42.668;23.250;2023-04-08T11:47:41;12.67;;;10.33;;
5297;SDS011;14738;42.668;23.250;2023-04-08T11:50:07;14.07;;;11.73;;
5297;SDS011;14738;42.668;23.250;2023-04-08T11:55:05;12.10;;;10.80;;
5297;SDS011;14738;42.668;23.250;2023-04-08T11:57:31;10.53;;;9.30;;
5297;SDS011;14738;42.668;23.250;2023-04-08T11:59:56;11.00;;;9.90;;
5297;SDS011;14738;42.668;23.250;2023-04-08T12:02:22;12.00;;;10.70;;
5297;SDS011;14738;42.668;23.250;2023-04-08T12:04:48;11.57;;;10.37;;
5297;SDS011;14738;42.668;23.250;2023-04-08T12:07:13;11.80;;;9.57;;
5297;SDS011;14738;42.668;23.250;2023-04-08T12:09:38;11.80;;;10.70;;
5297;SDS011;14738;42.668;23.250;2023-04-08T12:12:04;9.80;;;8.80;;
5297;SDS011;14738;42.668;23.250;2023-04-08T12:14:30;9.97;;;8.97;;
5297;SDS011;14738;42.668;23.250;2023-04-08T12:16:55;9.87;;;8.23;;
5297;SDS011;14738;42.668;23.250;2023-04-08T12:19:21;10.67;;;9.63;;
5297;SDS011;14738;42.668;23.250;2023-04-08T12:21:46;16.03;;;11.30;;
5297;SDS011;14738;42.668;23.250;2023-04-08T12:24:11;9.63;;;8.67;;
5297;SDS011;14738;42.668;23.250;2023-04-08T12:26:37;10.97;;;9.93;;
5297;SDS011;14738;42.668;23.250;2023-04-08T12:29:02;11.93;;;10.73;;
5297;SDS011;14738;42.668;23.250;2023-04-08T12:31:27;12.13;;;10.93;;
5297;SDS011;14738;42.668;23.250;2023-04-08T12:33:53;10.93;;;9.40;;
5297;SDS011;14738;42.668;23.250;2023-04-08T12:36:18;12.37;;;11.07;;
5297;SDS011;14738;42.668;23.250;2023-04-08T12:38:43;11.90;;;10.70;;
5297;SDS011;14738;42.668;23.250;2023-04-08T12:41:09;10.67;;;9.67;;
5297;SDS011;14738;42.668;23.250;2023-04-08T12:43:34;11.53;;;10.33;;
5297;SDS011;14738;42.668;23.250;2023-04-08T12:46:00;11.77;;;10.20;;
5297;SDS011;14738;42.668;23.250;2023-04-08T12:48:26;11.10;;;10.00;;
5297;SDS011;14738;42.668;23.250;2023-04-08T12:50:51;17.10;;;11.57;;
5297;SDS011;14738;42.668;23.250;2023-04-08T12:53:17;11.10;;;9.80;;
5297;SDS011;14738;42.668;23.250;2023-04-08T12:55:43;9.20;;;8.30;;
5297;SDS011;14738;42.668;23.250;2023-04-08T12:58:08;9.47;;;8.60;;
5297;SDS011;14738;42.668;23.250;2023-04-08T13:00:33;11.37;;;10.17;;
5297;SDS011;14738;42.668;23.250;2023-04-08T13:03:02;12.13;;;10.83;;
5297;SDS011;14738;42.668;23.250;2023-04-08T13:05:27;10.40;;;9.27;;
5297;SDS011;14738;42.668;23.250;2023-04-08T13:07:53;11.83;;;10.70;;
5297;SDS011;14738;42.668;23.250;2023-04-08T13:10:18;9.70;;;8.70;;
5297;SDS011;14738;42.668;23.250;2023-04-08T13:12:43;9.70;;;8.80;;
5297;SDS011;14738;42.668;23.250;2023-04-08T13:15:09;9.57;;;8.73;;
5297;SDS011;14738;42.668;23.250;2023-04-08T13:17:35;11.63;;;10.43;;
5297;SDS011;14738;42.668;23.250;2023-04-08T13:20:00;11.27;;;10.27;;
5297;SDS011;14738;42.668;23.250;2023-04-08T13:22:27;11.50;;;10.40;;
5297;SDS011;14738;42.668;23.250;2023-04-08T13:24:55;10.70;;;9.70;;
5297;SDS011;14738;42.668;23.250;2023-04-08T13:27:43;9.83;;;8.83;;
5297;SDS011;14738;42.668;23.250;2023-04-08T13:30:12;11.77;;;10.67;;
5297;SDS011;14738;42.668;23.250;2023-04-08T13:32:38;11.63;;;10.43;;
5297;SDS011;14738;42.668;23.250;2023-04-08T13:35:05;10.43;;;9.43;;
5297;SDS011;14738;42.668;23.250;2023-04-08T13:37:34;15.77;;;12.83;;
5297;SDS011;14738;42.668;23.250;2023-04-08T13:40:10;12.13;;;10.83;;
5297;SDS011;14738;42.668;23.250;2023-04-08T13:42:36;10.23;;;9.23;;
5297;SDS011;14738;42.668;23.250;2023-04-08T13:45:01;12.30;;;11.10;;
5297;SDS011;14738;42.668;23.250;2023-04-08T13:47:27;12.30;;;11.10;;
5297;SDS011;14738;42.668;23.250;2023-04-08T13:49:52;10.33;;;9.37;;
5297;SDS011;14738;42.668;23.250;2023-04-08T13:52:18;10.40;;;9.50;;
5297;SDS011;14738;42.668;23.250;2023-04-08T13:54:44;15.37;;;12.93;;
5297;SDS011;14738;42.668;23.250;2023-04-08T13:57:10;21.83;;;13.83;;
5297;SDS011;14738;42.668;23.250;2023-04-08T13:59:35;11.63;;;10.43;;
5297;SDS011;14738;42.668;23.250;2023-04-08T14:02:01;13.37;;;11.67;;
5297;SDS011;14738;42.668;23.250;2023-04-08T14:04:26;10.57;;;9.57;;
5297;SDS011;14738;42.668;23.250;2023-04-08T14:06:51;10.67;;;9.67;;
5297;SDS011;14738;42.668;23.250;2023-04-08T14:09:17;9.10;;;8.27;;
5297;SDS011;14738;42.668;23.250;2023-04-08T14:11:43;13.10;;;9.70;;
5297;SDS011;14738;42.668;23.250;2023-04-08T14:14:08;10.23;;;9.33;;
5297;SDS011;14738;42.668;23.250;2023-04-08T14:16:34;9.00;;;8.27;;
5297;SDS011;14738;42.668;23.250;2023-04-08T14:19:00;12.77;;;9.20;;
5297;SDS011;14738;42.668;23.250;2023-04-08T14:21:27;10.63;;;9.10;;
5297;SDS011;14738;42.668;23.250;2023-04-08T14:23:52;9.50;;;8.60;;
5297;SDS011;14738;42.668;23.250;2023-04-08T14:26:17;10.90;;;9.80;;
5297;SDS011;14738;42.668;23.250;2023-04-08T14:28:43;9.67;;;8.77;;
5297;SDS011;14738;42.668;23.250;2023-04-08T14:31:08;11.47;;;10.37;;
5297;SDS011;14738;42.668;23.250;2023-04-08T14:33:34;11.53;;;10.37;;
5297;SDS011;14738;42.668;23.250;2023-04-08T14:36:00;10.73;;;9.60;;
5297;SDS011;14738;42.668;23.250;2023-04-08T14:38:25;11.90;;;10.70;;
5297;SDS011;14738;42.668;23.250;2023-04-08T14:40:51;11.00;;;10.00;;
5297;SDS011;14738;42.668;23.250;2023-04-08T14:43:16;10.40;;;9.50;;
5297;SDS011;14738;42.668;23.250;2023-04-08T14:45:42;11.20;;;10.10;;
5297;SDS011;14738;42.668;23.250;2023-04-08T14:48:08;11.27;;;10.20;;
5297;SDS011;14738;42.668;23.250;2023-04-08T14:50:34;10.53;;;9.53;;
5297;SDS011;14738;42.668;23.250;2023-04-08T14:53:00;10.50;;;9.50;;
5297;SDS011;14738;42.668;23.250;2023-04-08T14:55:26;11.53;;;10.27;;
5297;SDS011;14738;42.668;23.250;2023-04-08T14:57:52;11.37;;;10.27;;
5297;SDS011;14738;42.668;23.250;2023-04-08T15:00:17;11.10;;;10.00;;